Pine Island, Minnesota
Current Conditions -  °F | °C
As of 10:33 PM on Friday 24 Oct 2014 (Local Time) from K9MN Reporting Station
Overcast Overcast  
Wind Chill: 55°   Ceiling: 100
Heat Index: 55°   Visibility: 0mi
Dew Point: 54°   Wind: 3mph
Humidity: 98%   Direction: 140°SE
Pressure: 29.9"   Gusts: NA
Location:  44.2°N, 92.65°W
Report Text: K9MN 250333Z AUTO 14003KT M1/4SM OVC001 13/12 A2990 RMK AO1 T01250122
Loading
Personal Weather Stations






























Interactive Weather Map
Tropical Storm Tracking
New forecast layout! Learn more

10-Day Weather Forecast

Advertisements
Track Severe Weather on mobile